sensor_id;sensor_type;location;lat;lon;timestamp;pressure;altitude;pressure_sealevel;temperature
47484;BMP280;54076;50.322;18.650;2023-12-07T00:04:23;98823.23;;;2.41
47484;BMP280;54076;50.322;18.650;2023-12-07T00:09:24;98834.73;;;2.37
47484;BMP280;54076;50.322;18.650;2023-12-07T00:14:25;98833.63;;;2.34
47484;BMP280;54076;50.322;18.650;2023-12-07T00:19:26;98830.08;;;2.21
47484;BMP280;54076;50.322;18.650;2023-12-07T00:24:27;98828.73;;;2.36
47484;BMP280;54076;50.322;18.650;2023-12-07T00:29:28;98826.67;;;2.30
47484;BMP280;54076;50.322;18.650;2023-12-07T00:34:29;98831.42;;;2.03
47484;BMP280;54076;50.322;18.650;2023-12-07T00:39:30;98836.14;;;2.14
47484;BMP280;54076;50.322;18.650;2023-12-07T00:44:31;98830.45;;;2.06
47484;BMP280;54076;50.322;18.650;2023-12-07T00:49:32;98838.93;;;2.06
47484;BMP280;54076;50.322;18.650;2023-12-07T00:54:33;98847.45;;;2.13
47484;BMP280;54076;50.322;18.650;2023-12-07T00:59:34;98843.27;;;2.28
47484;BMP280;54076;50.322;18.650;2023-12-07T01:04:35;98845.33;;;2.08
47484;BMP280;54076;50.322;18.650;2023-12-07T01:09:36;98851.85;;;1.99
47484;BMP280;54076;50.322;18.650;2023-12-07T01:14:37;98854.59;;;2.15
47484;BMP280;54076;50.322;18.650;2023-12-07T01:19:38;98864.45;;;2.27
47484;BMP280;54076;50.322;18.650;2023-12-07T01:24:39;98866.52;;;2.19
47484;BMP280;54076;50.322;18.650;2023-12-07T01:29:40;98869.14;;;2.06
47484;BMP280;54076;50.322;18.650;2023-12-07T01:34:41;98869.13;;;2.08
47484;BMP280;54076;50.322;18.650;2023-12-07T01:39:42;98870.54;;;2.16
47484;BMP280;54076;50.322;18.650;2023-12-07T01:44:45;98872.90;;;2.04
47484;BMP280;54076;50.322;18.650;2023-12-07T01:49:46;98881.63;;;2.01
47484;BMP280;54076;50.322;18.650;2023-12-07T01:54:47;98879.86;;;2.04
47484;BMP280;54076;50.322;18.650;2023-12-07T01:59:49;98879.73;;;1.75
47484;BMP280;54076;50.322;18.650;2023-12-07T02:04:50;98882.25;;;1.87
47484;BMP280;54076;50.322;18.650;2023-12-07T02:09:52;98876.20;;;1.95
47484;BMP280;54076;50.322;18.650;2023-12-07T02:14:53;98872.63;;;1.98
47484;BMP280;54076;50.322;18.650;2023-12-07T02:20:23;98873.11;;;1.81
47484;BMP280;54076;50.322;18.650;2023-12-07T02:25:51;98879.67;;;1.74
47484;BMP280;54076;50.322;18.650;2023-12-07T02:30:53;98878.70;;;1.76
47484;BMP280;54076;50.322;18.650;2023-12-07T02:35:54;98878.71;;;1.77
47484;BMP280;54076;50.322;18.650;2023-12-07T02:40:55;98878.21;;;1.65
47484;BMP280;54076;50.322;18.650;2023-12-07T02:45:57;98881.44;;;1.62
47484;BMP280;54076;50.322;18.650;2023-12-07T02:50:59;98887.62;;;1.74
47484;BMP280;54076;50.322;18.650;2023-12-07T02:56:00;98892.55;;;1.60
47484;BMP280;54076;50.322;18.650;2023-12-07T03:01:01;98889.28;;;1.48
47484;BMP280;54076;50.322;18.650;2023-12-07T03:06:02;98892.84;;;1.52
47484;BMP280;54076;50.322;18.650;2023-12-07T03:11:04;98897.63;;;1.75
47484;BMP280;54076;50.322;18.650;2023-12-07T03:16:09;98901.96;;;1.63
47484;BMP280;54076;50.322;18.650;2023-12-07T03:21:10;98909.98;;;1.51
47484;BMP280;54076;50.322;18.650;2023-12-07T03:26:11;98908.81;;;1.78
47484;BMP280;54076;50.322;18.650;2023-12-07T03:31:12;98907.27;;;1.86
47484;BMP280;54076;50.322;18.650;2023-12-07T03:36:13;98913.63;;;1.82
47484;BMP280;54076;50.322;18.650;2023-12-07T03:41:14;98916.95;;;1.97
47484;BMP280;54076;50.322;18.650;2023-12-07T03:46:16;98918.27;;;1.79
47484;BMP280;54076;50.322;18.650;2023-12-07T03:51:17;98921.91;;;1.95
47484;BMP280;54076;50.322;18.650;2023-12-07T03:56:29;98927.36;;;1.59
47484;BMP280;54076;50.322;18.650;2023-12-07T04:01:30;98929.70;;;1.80
47484;BMP280;54076;50.322;18.650;2023-12-07T04:06:31;98934.75;;;1.83
47484;BMP280;54076;50.322;18.650;2023-12-07T04:11:32;98932.52;;;1.92
47484;BMP280;54076;50.322;18.650;2023-12-07T04:16:33;98937.83;;;2.05
47484;BMP280;54076;50.322;18.650;2023-12-07T04:21:34;98937.73;;;2.06
47484;BMP280;54076;50.322;18.650;2023-12-07T04:26:35;98938.93;;;1.84
47484;BMP280;54076;50.322;18.650;2023-12-07T04:31:36;98942.08;;;1.88
47484;BMP280;54076;50.322;18.650;2023-12-07T04:36:37;98948.61;;;1.82
47484;BMP280;54076;50.322;18.650;2023-12-07T04:41:38;98957.71;;;1.56
47484;BMP280;54076;50.322;18.650;2023-12-07T04:46:39;98958.66;;;1.45
47484;BMP280;54076;50.322;18.650;2023-12-07T04:51:40;98967.44;;;1.38
47484;BMP280;54076;50.322;18.650;2023-12-07T04:56:42;98979.06;;;1.39
47484;BMP280;54076;50.322;18.650;2023-12-07T05:01:43;98981.41;;;1.49
47484;BMP280;54076;50.322;18.650;2023-12-07T05:06:44;98979.06;;;1.42
47484;BMP280;54076;50.322;18.650;2023-12-07T05:11:45;98982.41;;;1.38
47484;BMP280;54076;50.322;18.650;2023-12-07T05:16:46;98989.17;;;1.51
47484;BMP280;54076;50.322;18.650;2023-12-07T05:21:49;98997.04;;;1.67
47484;BMP280;54076;50.322;18.650;2023-12-07T05:26:50;98992.70;;;1.48
47484;BMP280;54076;50.322;18.650;2023-12-07T05:31:51;98998.70;;;1.69
47484;BMP280;54076;50.322;18.650;2023-12-07T05:36:52;99004.38;;;1.84
47484;BMP280;54076;50.322;18.650;2023-12-07T05:41:53;99008.02;;;1.62
47484;BMP280;54076;50.322;18.650;2023-12-07T05:46:54;99015.20;;;1.69
47484;BMP280;54076;50.322;18.650;2023-12-07T05:51:55;99014.44;;;1.71
47484;BMP280;54076;50.322;18.650;2023-12-07T05:56:56;99017.49;;;1.70
47484;BMP280;54076;50.322;18.650;2023-12-07T06:01:57;99020.88;;;1.89
47484;BMP280;54076;50.322;18.650;2023-12-07T06:06:58;99026.20;;;1.85
47484;BMP280;54076;50.322;18.650;2023-12-07T06:11:59;99031.48;;;1.74
47484;BMP280;54076;50.322;18.650;2023-12-07T06:17:00;99038.36;;;1.78
47484;BMP280;54076;50.322;18.650;2023-12-07T06:22:02;99044.63;;;1.77
47484;BMP280;54076;50.322;18.650;2023-12-07T06:27:03;99050.61;;;1.77
47484;BMP280;54076;50.322;18.650;2023-12-07T06:32:04;99055.66;;;1.81
47484;BMP280;54076;50.322;18.650;2023-12-07T06:37:05;99049.81;;;1.82
47484;BMP280;54076;50.322;18.650;2023-12-07T06:42:06;99054.81;;;1.58
47484;BMP280;54076;50.322;18.650;2023-12-07T06:47:08;99053.75;;;1.74
47484;BMP280;54076;50.322;18.650;2023-12-07T06:52:10;99058.54;;;1.83
47484;BMP280;54076;50.322;18.650;2023-12-07T06:57:12;99063.73;;;1.86
47484;BMP280;54076;50.322;18.650;2023-12-07T07:02:13;99070.13;;;1.70
47484;BMP280;54076;50.322;18.650;2023-12-07T07:07:15;99073.27;;;1.88
47484;BMP280;54076;50.322;18.650;2023-12-07T07:12:16;99075.80;;;1.92
47484;BMP280;54076;50.322;18.650;2023-12-07T07:17:17;99083.27;;;1.82
47484;BMP280;54076;50.322;18.650;2023-12-07T07:22:18;99086.48;;;1.72
47484;BMP280;54076;50.322;18.650;2023-12-07T07:27:19;99089.03;;;2.01
47484;BMP280;54076;50.322;18.650;2023-12-07T07:32:20;99090.58;;;1.97
47484;BMP280;54076;50.322;18.650;2023-12-07T07:37:22;99090.27;;;1.92
47484;BMP280;54076;50.322;18.650;2023-12-07T07:42:23;99095.20;;;1.93
47484;BMP280;54076;50.322;18.650;2023-12-07T07:47:24;99104.81;;;1.68
47484;BMP280;54076;50.322;18.650;2023-12-07T07:52:25;99102.91;;;2.10
47484;BMP280;54076;50.322;18.650;2023-12-07T07:57:26;99103.36;;;1.89
47484;BMP280;54076;50.322;18.650;2023-12-07T08:02:27;99106.87;;;1.99
47484;BMP280;54076;50.322;18.650;2023-12-07T08:07:28;99110.99;;;2.33
47484;BMP280;54076;50.322;18.650;2023-12-07T08:12:29;99111.66;;;2.47
47484;BMP280;54076;50.322;18.650;2023-12-07T08:17:30;99111.73;;;2.31
47484;BMP280;54076;50.322;18.650;2023-12-07T08:22:31;99113.10;;;2.20
47484;BMP280;54076;50.322;18.650;2023-12-07T08:27:33;99122.04;;;2.23
47484;BMP280;54076;50.322;18.650;2023-12-07T08:32:34;99127.40;;;2.26
47484;BMP280;54076;50.322;18.650;2023-12-07T08:37:37;99136.27;;;1.99
47484;BMP280;54076;50.322;18.650;2023-12-07T08:42:39;99143.32;;;1.99
47484;BMP280;54076;50.322;18.650;2023-12-07T08:47:41;99145.17;;;2.06
47484;BMP280;54076;50.322;18.650;2023-12-07T08:52:42;99150.00;;;2.18
47484;BMP280;54076;50.322;18.650;2023-12-07T08:57:44;99149.04;;;2.02
47484;BMP280;54076;50.322;18.650;2023-12-07T09:02:45;99150.84;;;2.43
47484;BMP280;54076;50.322;18.650;2023-12-07T09:07:46;99151.42;;;2.47
47484;BMP280;54076;50.322;18.650;2023-12-07T09:12:47;99156.60;;;2.70
47484;BMP280;54076;50.322;18.650;2023-12-07T09:17:48;99156.89;;;2.86
47484;BMP280;54076;50.322;18.650;2023-12-07T09:22:51;99154.03;;;2.73
47484;BMP280;54076;50.322;18.650;2023-12-07T09:27:54;99159.69;;;2.96
47484;BMP280;54076;50.322;18.650;2023-12-07T09:32:55;99161.01;;;2.90
47484;BMP280;54076;50.322;18.650;2023-12-07T09:37:56;99159.33;;;3.03
47484;BMP280;54076;50.322;18.650;2023-12-07T09:42:57;99162.45;;;2.72
47484;BMP280;54076;50.322;18.650;2023-12-07T09:47:59;99166.49;;;2.91
47484;BMP280;54076;50.322;18.650;2023-12-07T09:53:01;99167.88;;;3.06
47484;BMP280;54076;50.322;18.650;2023-12-07T09:58:05;99158.70;;;3.02
47484;BMP280;54076;50.322;18.650;2023-12-07T10:03:20;99158.42;;;3.29
47484;BMP280;54076;50.322;18.650;2023-12-07T10:08:34;99154.86;;;3.26
47484;BMP280;54076;50.322;18.650;2023-12-07T10:13:38;99149.45;;;3.16
47484;BMP280;54076;50.322;18.650;2023-12-07T10:18:39;99146.98;;;3.33
47484;BMP280;54076;50.322;18.650;2023-12-07T10:23:42;99144.73;;;3.38
47484;BMP280;54076;50.322;18.650;2023-12-07T10:28:49;99145.01;;;3.33
47484;BMP280;54076;50.322;18.650;2023-12-07T10:33:53;99150.17;;;3.52
47484;BMP280;54076;50.322;18.650;2023-12-07T10:38:54;99148.61;;;3.47
47484;BMP280;54076;50.322;18.650;2023-12-07T10:44:04;99145.86;;;3.42
47484;BMP280;54076;50.322;18.650;2023-12-07T10:49:12;99145.19;;;3.45
47484;BMP280;54076;50.322;18.650;2023-12-07T10:54:20;99152.73;;;3.41
47484;BMP280;54076;50.322;18.650;2023-12-07T10:59:23;99146.66;;;3.30
47484;BMP280;54076;50.322;18.650;2023-12-07T11:04:26;99148.70;;;3.53
47484;BMP280;54076;50.322;18.650;2023-12-07T11:09:31;99147.86;;;3.55
47484;BMP280;54076;50.322;18.650;2023-12-07T11:14:33;99145.38;;;3.60
47484;BMP280;54076;50.322;18.650;2023-12-07T11:24:59;99143.96;;;3.45
47484;BMP280;54076;50.322;18.650;2023-12-07T11:30:02;99148.19;;;3.49
47484;BMP280;54076;50.322;18.650;2023-12-07T11:35:04;99153.78;;;3.76
47484;BMP280;54076;50.322;18.650;2023-12-07T11:40:06;99155.05;;;3.71
47484;BMP280;54076;50.322;18.650;2023-12-07T11:45:07;99153.14;;;3.72
47484;BMP280;54076;50.322;18.650;2023-12-07T11:50:09;99149.74;;;3.57
47484;BMP280;54076;50.322;18.650;2023-12-07T11:55:14;99141.94;;;3.80
47484;BMP280;54076;50.322;18.650;2023-12-07T12:00:17;99129.48;;;3.72
47484;BMP280;54076;50.322;18.650;2023-12-07T12:05:18;99129.39;;;3.71
47484;BMP280;54076;50.322;18.650;2023-12-07T12:10:19;99131.70;;;3.80
47484;BMP280;54076;50.322;18.650;2023-12-07T12:15:21;99138.73;;;3.89
47484;BMP280;54076;50.322;18.650;2023-12-07T12:20:23;99147.52;;;3.80
47484;BMP280;54076;50.322;18.650;2023-12-07T12:25:26;99148.91;;;3.86
47484;BMP280;54076;50.322;18.650;2023-12-07T12:30:30;99143.54;;;3.68
47484;BMP280;54076;50.322;18.650;2023-12-07T12:35:31;99139.23;;;3.91
47484;BMP280;54076;50.322;18.650;2023-12-07T12:40:33;99136.09;;;3.77
47484;BMP280;54076;50.322;18.650;2023-12-07T12:45:34;99139.88;;;3.73
47484;BMP280;54076;50.322;18.650;2023-12-07T12:50:40;99138.71;;;3.87
47484;BMP280;54076;50.322;18.650;2023-12-07T12:55:42;99139.66;;;3.90
47484;BMP280;54076;50.322;18.650;2023-12-07T13:00:43;99142.92;;;3.75
47484;BMP280;54076;50.322;18.650;2023-12-07T13:05:45;99140.59;;;3.82
47484;BMP280;54076;50.322;18.650;2023-12-07T13:10:48;99145.19;;;4.01
47484;BMP280;54076;50.322;18.650;2023-12-07T13:15:50;99145.05;;;4.00
47484;BMP280;54076;50.322;18.650;2023-12-07T13:20:51;99153.42;;;4.05
47484;BMP280;54076;50.322;18.650;2023-12-07T13:25:52;99160.95;;;3.93
47484;BMP280;54076;50.322;18.650;2023-12-07T13:30:53;99167.20;;;3.75
47484;BMP280;54076;50.322;18.650;2023-12-07T13:35:55;99168.11;;;3.82
47484;BMP280;54076;50.322;18.650;2023-12-07T13:40:56;99166.92;;;3.79
47484;BMP280;54076;50.322;18.650;2023-12-07T13:45:57;99173.88;;;3.68
47484;BMP280;54076;50.322;18.650;2023-12-07T13:50:59;99185.13;;;3.66
47484;BMP280;54076;50.322;18.650;2023-12-07T13:56:00;99192.34;;;3.63
47484;BMP280;54076;50.322;18.650;2023-12-07T14:01:01;99192.70;;;3.53
47484;BMP280;54076;50.322;18.650;2023-12-07T14:06:03;99193.90;;;3.57
47484;BMP280;54076;50.322;18.650;2023-12-07T14:11:04;99193.09;;;3.42
47484;BMP280;54076;50.322;18.650;2023-12-07T14:16:05;99196.29;;;3.51
47484;BMP280;54076;50.322;18.650;2023-12-07T14:21:09;99200.17;;;3.63
47484;BMP280;54076;50.322;18.650;2023-12-07T14:26:10;99198.14;;;3.56
47484;BMP280;54076;50.322;18.650;2023-12-07T14:31:11;99215.38;;;3.42
47484;BMP280;54076;50.322;18.650;2023-12-07T14:36:17;99216.23;;;3.37
47484;BMP280;54076;50.322;18.650;2023-12-07T14:41:18;99211.72;;;3.41
47484;BMP280;54076;50.322;18.650;2023-12-07T14:46:19;99208.77;;;3.28
47484;BMP280;54076;50.322;18.650;2023-12-07T14:51:21;99208.44;;;3.51
47484;BMP280;54076;50.322;18.650;2023-12-07T14:56:22;99213.90;;;3.47
47484;BMP280;54076;50.322;18.650;2023-12-07T15:01:24;99219.80;;;3.32
47484;BMP280;54076;50.322;18.650;2023-12-07T15:06:26;99216.56;;;3.26
47484;BMP280;54076;50.322;18.650;2023-12-07T15:11:27;99219.59;;;3.44
47484;BMP280;54076;50.322;18.650;2023-12-07T15:16:29;99225.96;;;3.30
47484;BMP280;54076;50.322;18.650;2023-12-07T15:21:30;99229.41;;;3.30
47484;BMP280;54076;50.322;18.650;2023-12-07T15:26:31;99231.08;;;3.11
47484;BMP280;54076;50.322;18.650;2023-12-07T15:31:32;99229.45;;;3.40
47484;BMP280;54076;50.322;18.650;2023-12-07T15:36:34;99230.56;;;3.44
47484;BMP280;54076;50.322;18.650;2023-12-07T15:41:35;99226.48;;;3.47
47484;BMP280;54076;50.322;18.650;2023-12-07T15:46:36;99231.43;;;3.52
47484;BMP280;54076;50.322;18.650;2023-12-07T15:51:37;99231.89;;;3.36
47484;BMP280;54076;50.322;18.650;2023-12-07T15:56:41;99235.99;;;3.33
47484;BMP280;54076;50.322;18.650;2023-12-07T16:01:42;99241.36;;;3.49
47484;BMP280;54076;50.322;18.650;2023-12-07T16:06:43;99242.39;;;3.28
47484;BMP280;54076;50.322;18.650;2023-12-07T16:11:44;99251.89;;;3.51
47484;BMP280;54076;50.322;18.650;2023-12-07T16:16:44;99252.07;;;3.58
47484;BMP280;54076;50.322;18.650;2023-12-07T16:21:45;99245.41;;;3.34
47484;BMP280;54076;50.322;18.650;2023-12-07T16:26:46;99246.19;;;3.23
47484;BMP280;54076;50.322;18.650;2023-12-07T16:31:47;99243.43;;;3.23
47484;BMP280;54076;50.322;18.650;2023-12-07T16:36:49;99251.96;;;3.40
47484;BMP280;54076;50.322;18.650;2023-12-07T16:41:50;99255.70;;;3.40
47484;BMP280;54076;50.322;18.650;2023-12-07T16:46:51;99259.11;;;3.48
47484;BMP280;54076;50.322;18.650;2023-12-07T16:51:53;99257.25;;;3.31
47484;BMP280;54076;50.322;18.650;2023-12-07T16:56:54;99255.35;;;3.17
47484;BMP280;54076;50.322;18.650;2023-12-07T17:01:55;99255.86;;;3.59
47484;BMP280;54076;50.322;18.650;2023-12-07T17:06:56;99263.80;;;3.46
47484;BMP280;54076;50.322;18.650;2023-12-07T17:11:57;99262.15;;;3.45
47484;BMP280;54076;50.322;18.650;2023-12-07T17:16:58;99263.83;;;3.30
47484;BMP280;54076;50.322;18.650;2023-12-07T17:21:59;99261.30;;;3.30
47484;BMP280;54076;50.322;18.650;2023-12-07T17:27:00;99261.43;;;3.35
47484;BMP280;54076;50.322;18.650;2023-12-07T17:32:02;99262.95;;;3.37
47484;BMP280;54076;50.322;18.650;2023-12-07T17:37:03;99265.31;;;3.29
47484;BMP280;54076;50.322;18.650;2023-12-07T17:42:05;99265.75;;;3.19
47484;BMP280;54076;50.322;18.650;2023-12-07T17:47:06;99273.21;;;3.46
47484;BMP280;54076;50.322;18.650;2023-12-07T17:52:08;99275.66;;;3.38
47484;BMP280;54076;50.322;18.650;2023-12-07T17:57:09;99272.48;;;3.15
47484;BMP280;54076;50.322;18.650;2023-12-07T18:02:10;99271.25;;;3.30
47484;BMP280;54076;50.322;18.650;2023-12-07T18:07:11;99268.16;;;3.16
47484;BMP280;54076;50.322;18.650;2023-12-07T18:12:12;99269.33;;;3.30
47484;BMP280;54076;50.322;18.650;2023-12-07T18:17:13;99269.23;;;3.31
47484;BMP280;54076;50.322;18.650;2023-12-07T18:22:15;99271.27;;;3.39
47484;BMP280;54076;50.322;18.650;2023-12-07T18:27:16;99267.18;;;3.15
47484;BMP280;54076;50.322;18.650;2023-12-07T18:32:17;99273.69;;;3.28
47484;BMP280;54076;50.322;18.650;2023-12-07T18:37:18;99275.88;;;3.53
47484;BMP280;54076;50.322;18.650;2023-12-07T18:42:19;99278.73;;;3.32
47484;BMP280;54076;50.322;18.650;2023-12-07T18:47:20;99277.66;;;3.42
47484;BMP280;54076;50.322;18.650;2023-12-07T18:52:21;99276.29;;;3.44
47484;BMP280;54076;50.322;18.650;2023-12-07T18:57:23;99271.77;;;3.56
47484;BMP280;54076;50.322;18.650;2023-12-07T19:02:24;99274.56;;;3.51
47484;BMP280;54076;50.322;18.650;2023-12-07T19:07:25;99275.33;;;3.46
47484;BMP280;54076;50.322;18.650;2023-12-07T19:12:26;99278.82;;;3.43
47484;BMP280;54076;50.322;18.650;2023-12-07T19:17:27;99278.77;;;3.35
47484;BMP280;54076;50.322;18.650;2023-12-07T19:22:28;99280.17;;;3.66
47484;BMP280;54076;50.322;18.650;2023-12-07T19:27:29;99280.30;;;3.42
47484;BMP280;54076;50.322;18.650;2023-12-07T19:32:30;99277.77;;;3.42
47484;BMP280;54076;50.322;18.650;2023-12-07T19:37:31;99278.17;;;3.49
47484;BMP280;54076;50.322;18.650;2023-12-07T19:42:34;99284.49;;;3.46
47484;BMP280;54076;50.322;18.650;2023-12-07T19:47:35;99281.73;;;3.53
47484;BMP280;54076;50.322;18.650;2023-12-07T19:52:36;99284.94;;;3.37
47484;BMP280;54076;50.322;18.650;2023-12-07T19:57:37;99282.07;;;3.41
47484;BMP280;54076;50.322;18.650;2023-12-07T20:02:42;99276.80;;;3.28
47484;BMP280;54076;50.322;18.650;2023-12-07T20:07:43;99278.71;;;3.42
47484;BMP280;54076;50.322;18.650;2023-12-07T20:12:44;99274.88;;;3.32
47484;BMP280;54076;50.322;18.650;2023-12-07T20:17:45;99276.09;;;3.28
47484;BMP280;54076;50.322;18.650;2023-12-07T20:22:46;99281.05;;;3.32
47484;BMP280;54076;50.322;18.650;2023-12-07T20:27:47;99286.11;;;3.25
47484;BMP280;54076;50.322;18.650;2023-12-07T20:32:48;99297.90;;;3.49
47484;BMP280;54076;50.322;18.650;2023-12-07T20:37:50;99300.45;;;3.56
47484;BMP280;54076;50.322;18.650;2023-12-07T20:42:51;99303.90;;;3.55
47484;BMP280;54076;50.322;18.650;2023-12-07T20:47:52;99300.22;;;3.31
47484;BMP280;54076;50.322;18.650;2023-12-07T20:52:53;99307.83;;;3.18
47484;BMP280;54076;50.322;18.650;2023-12-07T20:57:54;99303.18;;;3.34
47484;BMP280;54076;50.322;18.650;2023-12-07T21:02:55;99294.05;;;3.37
47484;BMP280;54076;50.322;18.650;2023-12-07T21:07:58;99294.96;;;3.47
47484;BMP280;54076;50.322;18.650;2023-12-07T21:12:59;99288.14;;;3.34
47484;BMP280;54076;50.322;18.650;2023-12-07T21:18:00;99285.13;;;3.20
47484;BMP280;54076;50.322;18.650;2023-12-07T21:23:02;99281.25;;;3.20
47484;BMP280;54076;50.322;18.650;2023-12-07T21:28:03;99271.86;;;3.34
47484;BMP280;54076;50.322;18.650;2023-12-07T21:33:04;99269.67;;;3.21
47484;BMP280;54076;50.322;18.650;2023-12-07T21:38:05;99271.24;;;3.35
47484;BMP280;54076;50.322;18.650;2023-12-07T21:43:06;99273.84;;;3.34
47484;BMP280;54076;50.322;18.650;2023-12-07T21:48:07;99270.36;;;3.39
47484;BMP280;54076;50.322;18.650;2023-12-07T21:53:08;99255.46;;;3.20
47484;BMP280;54076;50.322;18.650;2023-12-07T21:58:09;99246.16;;;3.31
47484;BMP280;54076;50.322;18.650;2023-12-07T22:03:10;99240.21;;;3.51
47484;BMP280;54076;50.322;18.650;2023-12-07T22:08:11;99227.65;;;3.58
47484;BMP280;54076;50.322;18.650;2023-12-07T22:13:12;99217.16;;;3.46
47484;BMP280;54076;50.322;18.650;2023-12-07T22:18:13;99213.33;;;3.63
47484;BMP280;54076;50.322;18.650;2023-12-07T22:23:14;99215.34;;;3.56
47484;BMP280;54076;50.322;18.650;2023-12-07T22:28:15;99217.12;;;3.76
47484;BMP280;54076;50.322;18.650;2023-12-07T22:33:16;99211.89;;;3.66
47484;BMP280;54076;50.322;18.650;2023-12-07T22:38:17;99201.66;;;3.60
47484;BMP280;54076;50.322;18.650;2023-12-07T22:43:19;99194.79;;;3.35
47484;BMP280;54076;50.322;18.650;2023-12-07T22:48:20;99191.46;;;3.43
47484;BMP280;54076;50.322;18.650;2023-12-07T22:53:21;99197.00;;;3.43
47484;BMP280;54076;50.322;18.650;2023-12-07T22:58:23;99199.39;;;3.44
47484;BMP280;54076;50.322;18.650;2023-12-07T23:03:24;99191.59;;;3.42
47484;BMP280;54076;50.322;18.650;2023-12-07T23:08:25;99186.50;;;3.37
47484;BMP280;54076;50.322;18.650;2023-12-07T23:13:26;99183.27;;;3.19
47484;BMP280;54076;50.322;18.650;2023-12-07T23:18:27;99176.63;;;3.24
47484;BMP280;54076;50.322;18.650;2023-12-07T23:23:28;99181.41;;;3.34
47484;BMP280;54076;50.322;18.650;2023-12-07T23:28:31;99178.61;;;3.29
47484;BMP280;54076;50.322;18.650;2023-12-07T23:33:32;99191.52;;;3.22
47484;BMP280;54076;50.322;18.650;2023-12-07T23:38:34;99192.46;;;3.26
47484;BMP280;54076;50.322;18.650;2023-12-07T23:43:35;99195.39;;;3.20
47484;BMP280;54076;50.322;18.650;2023-12-07T23:48:36;99187.94;;;3.37
47484;BMP280;54076;50.322;18.650;2023-12-07T23:53:37;99178.70;;;3.19
47484;BMP280;54076;50.322;18.650;2023-12-07T23:58:38;99181.72;;;3.21
